AAL2857 KMIA-TNCC
Flight info
| Callsign | AAL2857 |
|---|---|
| Flight time | N/A |
| Altitude | 37000 |
| Route | KLADA2 JAGOR Y398 JOSES UA315 VESKA VESKA1B |
| Aircraft | A321/M-SDE3FGHIRWY/LB1 |
Departure
| Time | N/A |
|---|---|
| Airport | Miami International Airport (KMIA) |
Arrival
| Time | 2026-04-20 17:43 |
|---|---|
| Airport | Hato International Airport (TNCC) |
| Time | Latitude | Longitude | Altitude | Speed | Heading |
|---|---|---|---|---|---|
| 2026-04-20 17:43 | 12.18548 | -68.95680 | 43 ft | 0 kts | 192° |
| 2026-04-20 17:49 | 12.18567 | -68.95676 | 42 ft | 4 kts | 194° |
| 2026-04-20 17:49 | 12.18593 | -68.95668 | 40 ft | 4 kts | 200° |
| 2026-04-20 17:49 | 12.18618 | -68.95657 | 43 ft | 4 kts | 212° |
| 2026-04-20 17:49 | 12.18637 | -68.95640 | 43 ft | 4 kts | 252° |
| 2026-04-20 17:50 | 12.18638 | -68.95630 | 43 ft | 0 kts | 283° |
| 2026-04-20 17:52 | 12.18640 | -68.95637 | 42 ft | 2 kts | 283° |
| 2026-04-20 17:53 | 12.18644 | -68.95655 | 42 ft | 3 kts | 281° |
| 2026-04-20 17:53 | 12.18649 | -68.95682 | 42 ft | 5 kts | 281° |
| 2026-04-20 17:53 | 12.18657 | -68.95719 | 42 ft | 6 kts | 282° |
| 2026-04-20 17:53 | 12.18666 | -68.95763 | 43 ft | 7 kts | 282° |
| 2026-04-20 17:54 | 12.18677 | -68.95815 | 43 ft | 8 kts | 282° |
| 2026-04-20 17:54 | 12.18690 | -68.95874 | 43 ft | 9 kts | 282° |
| 2026-04-20 17:54 | 12.18703 | -68.95940 | 43 ft | 10 kts | 282° |
| 2026-04-20 17:54 | 12.18719 | -68.96013 | 43 ft | 11 kts | 282° |
| 2026-04-20 17:55 | 12.18736 | -68.96096 | 43 ft | 12 kts | 282° |
| 2026-04-20 17:55 | 12.18755 | -68.96185 | 43 ft | 13 kts | 282° |
| 2026-04-20 17:55 | 12.18775 | -68.96279 | 43 ft | 14 kts | 282° |
| 2026-04-20 17:55 | 12.18796 | -68.96379 | 43 ft | 15 kts | 281° |
| 2026-04-20 17:56 | 12.18816 | -68.96480 | 42 ft | 15 kts | 282° |
| 2026-04-20 17:56 | 12.18838 | -68.96588 | 42 ft | 16 kts | 282° |
| 2026-04-20 17:56 | 12.18862 | -68.96703 | 41 ft | 17 kts | 282° |
| 2026-04-20 17:56 | 12.18886 | -68.96826 | 41 ft | 18 kts | 282° |
| 2026-04-20 17:57 | 12.18912 | -68.96947 | 38 ft | 16 kts | 282° |
| 2026-04-20 17:57 | 12.18937 | -68.97061 | 40 ft | 16 kts | 282° |
| 2026-04-20 17:57 | 12.18962 | -68.97173 | 40 ft | 17 kts | 282° |
| 2026-04-20 17:57 | 12.18986 | -68.97287 | 40 ft | 14 kts | 281° |
| 2026-04-20 17:58 | 12.19006 | -68.97385 | 39 ft | 15 kts | 282° |
| 2026-04-20 17:58 | 12.19027 | -68.97489 | 40 ft | 15 kts | 282° |
| 2026-04-20 17:58 | 12.19049 | -68.97597 | 40 ft | 16 kts | 282° |
| 2026-04-20 17:58 | 12.19112 | -68.97640 | 38 ft | 11 kts | 6° |
| 2026-04-20 17:59 | 12.19171 | -68.97625 | 38 ft | 9 kts | 23° |
| 2026-04-20 17:59 | 12.19203 | -68.97570 | 39 ft | 10 kts | 70° |
| 2026-04-20 17:59 | 12.19208 | -68.97496 | 39 ft | 12 kts | 98° |
| 2026-04-20 17:59 | 12.19180 | -68.97360 | 40 ft | 43 kts | 102° |
| 2026-04-20 18:00 | 12.19065 | -68.96813 | 41 ft | 112 kts | 102° |
| 2026-04-20 18:00 | 12.18864 | -68.95843 | 45 ft | 165 kts | 101° |
| 2026-04-20 18:00 | 12.18629 | -68.94693 | 667 ft | 162 kts | 100° |
| 2026-04-20 18:00 | 12.18401 | -68.93567 | 1451 ft | 157 kts | 101° |
| 2026-04-20 18:01 | 12.18181 | -68.92494 | 1987 ft | 161 kts | 101° |
| 2026-04-20 18:01 | 12.17929 | -68.91305 | 2236 ft | 182 kts | 102° |
| 2026-04-20 18:01 | 12.17643 | -68.89972 | 2464 ft | 202 kts | 102° |
| 2026-04-20 18:01 | 12.17616 | -68.88473 | 2608 ft | 227 kts | 72° |
| 2026-04-20 18:02 | 12.18612 | -68.87135 | 2903 ft | 253 kts | 35° |
| 2026-04-20 18:02 | 12.20281 | -68.86448 | 3517 ft | 263 kts | 20° |
| 2026-04-20 18:02 | 12.22039 | -68.85891 | 4264 ft | 266 kts | 19° |
| 2026-04-20 18:02 | 12.23819 | -68.85338 | 5007 ft | 269 kts | 19° |
| 2026-04-20 18:03 | 12.25617 | -68.84772 | 5718 ft | 272 kts | 19° |
| 2026-04-20 18:03 | 12.27440 | -68.84195 | 6405 ft | 276 kts | 19° |
| 2026-04-20 18:03 | 12.29285 | -68.83607 | 7089 ft | 280 kts | 19° |
| 2026-04-20 18:03 | 12.31150 | -68.83007 | 7758 ft | 282 kts | 19° |
| 2026-04-20 18:04 | 12.33033 | -68.82398 | 8399 ft | 286 kts | 19° |
| 2026-04-20 18:04 | 12.34943 | -68.81780 | 9023 ft | 289 kts | 19° |
| 2026-04-20 18:04 | 12.36873 | -68.81156 | 9610 ft | 293 kts | 19° |
| 2026-04-20 18:04 | 12.38824 | -68.80527 | 10207 ft | 297 kts | 18° |
| 2026-04-20 18:05 | 12.42994 | -68.79178 | 10504 ft | 336 kts | 18° |
| 2026-04-20 18:05 | 12.45286 | -68.78435 | 10629 ft | 354 kts | 18° |
| 2026-04-20 18:05 | 12.47683 | -68.77656 | 10875 ft | 367 kts | 18° |
| 2026-04-20 18:06 | 12.50137 | -68.76859 | 11373 ft | 372 kts | 18° |
| 2026-04-20 18:06 | 12.52615 | -68.76054 | 11925 ft | 375 kts | 18° |
| 2026-04-20 18:06 | 12.54297 | -68.75509 | 12296 ft | 377 kts | 18° |
| 2026-04-20 18:06 | 12.57627 | -68.74432 | 13035 ft | 381 kts | 18° |
| 2026-04-20 18:07 | 12.59340 | -68.73879 | 13402 ft | 383 kts | 18° |
| 2026-04-20 18:07 | 12.61892 | -68.73067 | 13925 ft | 386 kts | 15° |
| 2026-04-20 18:07 | 12.64546 | -68.72596 | 14431 ft | 389 kts | 4° |
| 2026-04-20 18:07 | 12.67261 | -68.72668 | 14926 ft | 393 kts | 353° |
| 2026-04-20 18:08 | 12.69899 | -68.73278 | 15425 ft | 396 kts | 341° |
| 2026-04-20 18:08 | 12.72516 | -68.74310 | 15923 ft | 399 kts | 339° |
| 2026-04-20 18:08 | 12.75110 | -68.75357 | 16420 ft | 402 kts | 339° |
| 2026-04-20 18:08 | 12.77719 | -68.76402 | 16905 ft | 405 kts | 339° |
| 2026-04-20 18:09 | 12.80319 | -68.77433 | 17376 ft | 407 kts | 339° |
| 2026-04-20 18:09 | 12.82971 | -68.78483 | 17862 ft | 410 kts | 339° |
| 2026-04-20 18:09 | 12.85637 | -68.79541 | 18328 ft | 413 kts | 339° |
| 2026-04-20 18:09 | 12.88324 | -68.80610 | 18791 ft | 415 kts | 339° |
| 2026-04-20 18:10 | 12.91026 | -68.81684 | 19237 ft | 418 kts | 339° |
| 2026-04-20 18:10 | 12.93742 | -68.82764 | 19667 ft | 420 kts | 339° |
| 2026-04-20 18:10 | 12.96473 | -68.83852 | 20068 ft | 422 kts | 339° |
| 2026-04-20 18:10 | 12.99219 | -68.84948 | 20452 ft | 424 kts | 339° |
| 2026-04-20 18:11 | 13.01977 | -68.86049 | 20809 ft | 427 kts | 339° |
| 2026-04-20 18:11 | 13.04752 | -68.87157 | 21177 ft | 429 kts | 339° |
| 2026-04-20 18:11 | 13.07535 | -68.88266 | 21528 ft | 431 kts | 339° |
| 2026-04-20 18:11 | 13.10336 | -68.89383 | 21854 ft | 433 kts | 339° |
| 2026-04-20 18:12 | 13.13152 | -68.90506 | 22191 ft | 435 kts | 339° |
| 2026-04-20 18:12 | 13.15974 | -68.91631 | 22508 ft | 436 kts | 339° |
| 2026-04-20 18:12 | 13.18811 | -68.92766 | 22810 ft | 438 kts | 339° |
| 2026-04-20 18:12 | 13.21659 | -68.93909 | 23119 ft | 440 kts | 339° |
| 2026-04-20 18:13 | 13.24517 | -68.95054 | 23417 ft | 442 kts | 339° |
| 2026-04-20 18:13 | 13.27382 | -68.96200 | 23713 ft | 443 kts | 339° |
| 2026-04-20 18:13 | 13.30260 | -68.97351 | 23991 ft | 445 kts | 339° |
| 2026-04-20 18:13 | 13.33148 | -68.98507 | 24269 ft | 446 kts | 339° |
| 2026-04-20 18:14 | 13.36047 | -68.99667 | 24538 ft | 448 kts | 339° |
| 2026-04-20 18:14 | 13.38954 | -69.00830 | 24808 ft | 450 kts | 339° |
| 2026-04-20 18:14 | 13.41876 | -69.01998 | 25077 ft | 451 kts | 339° |
| 2026-04-20 18:14 | 13.44807 | -69.03169 | 25342 ft | 453 kts | 339° |
| 2026-04-20 18:15 | 13.47744 | -69.04343 | 25609 ft | 454 kts | 339° |
| 2026-04-20 18:15 | 13.50691 | -69.05525 | 25881 ft | 455 kts | 339° |
| 2026-04-20 18:15 | 13.53646 | -69.06713 | 26132 ft | 457 kts | 339° |
| 2026-04-20 18:15 | 13.56568 | -69.07887 | 26368 ft | 458 kts | 339° |
| 2026-04-20 18:16 | 13.59546 | -69.09080 | 26620 ft | 460 kts | 339° |
| 2026-04-20 18:16 | 13.62529 | -69.10276 | 26875 ft | 461 kts | 339° |
| 2026-04-20 18:16 | 13.65525 | -69.11476 | 27132 ft | 463 kts | 339° |
| 2026-04-20 18:16 | 13.68530 | -69.12679 | 27396 ft | 464 kts | 338° |
| 2026-04-20 18:17 | 13.71541 | -69.13884 | 27651 ft | 465 kts | 338° |
| 2026-04-20 18:17 | 13.74564 | -69.15097 | 27883 ft | 467 kts | 338° |
| 2026-04-20 18:17 | 13.77593 | -69.16317 | 28120 ft | 468 kts | 338° |
| 2026-04-20 18:17 | 13.80619 | -69.17536 | 28445 ft | 467 kts | 338° |
| 2026-04-20 18:18 | 13.83641 | -69.18751 | 28772 ft | 466 kts | 338° |
| 2026-04-20 18:18 | 13.86654 | -69.19965 | 29128 ft | 464 kts | 338° |
| 2026-04-20 18:18 | 13.89657 | -69.21175 | 29479 ft | 463 kts | 338° |
| 2026-04-20 18:18 | 13.92648 | -69.22381 | 29812 ft | 461 kts | 338° |
| 2026-04-20 18:19 | 13.95636 | -69.23583 | 30159 ft | 460 kts | 338° |
| 2026-04-20 18:19 | 13.98611 | -69.24781 | 30497 ft | 459 kts | 338° |
| 2026-04-20 18:19 | 14.01585 | -69.25978 | 30821 ft | 458 kts | 338° |
| 2026-04-20 18:19 | 14.04548 | -69.27169 | 31138 ft | 457 kts | 338° |
| 2026-04-20 18:20 | 14.07504 | -69.28356 | 31487 ft | 455 kts | 337° |
| 2026-04-20 18:20 | 14.10452 | -69.29538 | 31816 ft | 454 kts | 337° |
| 2026-04-20 18:20 | 14.13390 | -69.30720 | 32128 ft | 453 kts | 337° |
| 2026-04-20 18:20 | 14.16323 | -69.31908 | 32425 ft | 453 kts | 337° |
| 2026-04-20 18:21 | 14.19252 | -69.33094 | 32717 ft | 452 kts | 337° |
| 2026-04-20 18:21 | 14.22172 | -69.34274 | 33020 ft | 451 kts | 337° |
| 2026-04-20 18:21 | 14.25091 | -69.35453 | 33298 ft | 450 kts | 337° |
| 2026-04-20 18:21 | 14.28008 | -69.36633 | 33571 ft | 450 kts | 337° |
| 2026-04-20 18:22 | 14.30917 | -69.37809 | 33857 ft | 449 kts | 336° |
| 2026-04-20 18:22 | 14.33825 | -69.38981 | 34139 ft | 448 kts | 337° |
| 2026-04-20 18:22 | 14.36726 | -69.40151 | 34408 ft | 448 kts | 336° |
| 2026-04-20 18:22 | 14.39625 | -69.41325 | 34676 ft | 447 kts | 336° |
| 2026-04-20 18:23 | 14.42519 | -69.42498 | 34943 ft | 447 kts | 336° |
| 2026-04-20 18:23 | 14.45367 | -69.43654 | 35203 ft | 446 kts | 336° |
| 2026-04-20 18:23 | 14.48253 | -69.44822 | 35468 ft | 445 kts | 336° |
| 2026-04-20 18:23 | 14.51135 | -69.45986 | 35733 ft | 444 kts | 336° |
| 2026-04-20 18:24 | 14.54011 | -69.47149 | 35941 ft | 444 kts | 336° |
| 2026-04-20 18:24 | 14.56890 | -69.48312 | 35997 ft | 444 kts | 336° |
| 2026-04-20 18:24 | 14.62633 | -69.50636 | 36001 ft | 443 kts | 336° |
| 2026-04-20 18:25 | 14.68359 | -69.52959 | 35998 ft | 442 kts | 336° |
| 2026-04-20 18:25 | 14.74082 | -69.55277 | 36000 ft | 442 kts | 336° |
| 2026-04-20 18:26 | 14.79801 | -69.57592 | 35997 ft | 441 kts | 336° |
| 2026-04-20 18:26 | 14.85516 | -69.59914 | 36004 ft | 441 kts | 336° |
| 2026-04-20 18:27 | 14.91232 | -69.62236 | 36008 ft | 441 kts | 336° |
| 2026-04-20 18:27 | 14.96943 | -69.64560 | 36019 ft | 441 kts | 336° |
| 2026-04-20 18:28 | 15.02656 | -69.66884 | 36024 ft | 441 kts | 336° |
| 2026-04-20 18:28 | 15.08362 | -69.69206 | 36022 ft | 441 kts | 336° |
| 2026-04-20 18:29 | 15.14066 | -69.71522 | 36023 ft | 440 kts | 336° |
| 2026-04-20 18:29 | 15.19761 | -69.73837 | 36022 ft | 440 kts | 336° |
| 2026-04-20 18:30 | 15.25452 | -69.76161 | 36029 ft | 440 kts | 336° |
| 2026-04-20 18:30 | 15.31143 | -69.78482 | 36031 ft | 439 kts | 336° |
| 2026-04-20 18:31 | 15.36825 | -69.80799 | 36031 ft | 439 kts | 336° |
| 2026-04-20 18:31 | 15.42502 | -69.83115 | 36033 ft | 438 kts | 336° |
| 2026-04-20 18:32 | 15.48176 | -69.85429 | 36033 ft | 438 kts | 336° |
| 2026-04-20 18:32 | 15.53844 | -69.87743 | 36034 ft | 438 kts | 336° |
| 2026-04-20 18:33 | 15.59507 | -69.90059 | 36042 ft | 437 kts | 335° |
| 2026-04-20 18:33 | 15.65166 | -69.92386 | 36050 ft | 437 kts | 336° |
| 2026-04-20 18:34 | 15.70827 | -69.94700 | 36036 ft | 437 kts | 336° |
| 2026-04-20 18:34 | 15.76480 | -69.97017 | 36046 ft | 437 kts | 335° |
| 2026-04-20 18:35 | 15.82133 | -69.99332 | 36037 ft | 436 kts | 335° |
| 2026-04-20 18:35 | 15.87775 | -70.01643 | 36035 ft | 436 kts | 335° |
| 2026-04-20 18:36 | 15.93375 | -70.03949 | 36037 ft | 436 kts | 335° |
| 2026-04-20 18:36 | 15.99009 | -70.06289 | 36037 ft | 435 kts | 332° |
| 2026-04-20 18:37 | 16.04106 | -70.09590 | 36035 ft | 432 kts | 323° |
| 2026-04-20 18:37 | 16.09063 | -70.13118 | 36036 ft | 432 kts | 323° |
| 2026-04-20 18:38 | 16.14018 | -70.16641 | 36038 ft | 431 kts | 323° |
| 2026-04-20 18:38 | 16.18968 | -70.20162 | 36045 ft | 431 kts | 323° |
| 2026-04-20 18:39 | 16.23923 | -70.23688 | 36036 ft | 432 kts | 323° |
| 2026-04-20 18:39 | 16.28883 | -70.27218 | 36038 ft | 432 kts | 323° |
| 2026-04-20 18:40 | 16.33836 | -70.30753 | 36042 ft | 431 kts | 323° |
| 2026-04-20 18:40 | 16.38785 | -70.34283 | 36042 ft | 431 kts | 323° |
| 2026-04-20 18:41 | 16.43734 | -70.37813 | 36052 ft | 431 kts | 323° |
| 2026-04-20 18:41 | 16.48684 | -70.41350 | 36039 ft | 431 kts | 323° |
| 2026-04-20 18:42 | 16.53626 | -70.44889 | 36045 ft | 431 kts | 323° |
| 2026-04-20 18:42 | 16.58565 | -70.48433 | 36044 ft | 431 kts | 323° |
| 2026-04-20 18:43 | 16.63505 | -70.51973 | 36043 ft | 431 kts | 323° |
| 2026-04-20 18:43 | 16.68448 | -70.55505 | 36051 ft | 430 kts | 323° |
| 2026-04-20 18:44 | 16.73377 | -70.59039 | 36049 ft | 429 kts | 323° |
| 2026-04-20 18:44 | 16.78301 | -70.62568 | 36046 ft | 430 kts | 323° |
| 2026-04-20 18:45 | 16.83222 | -70.66105 | 36049 ft | 429 kts | 323° |
| 2026-04-20 18:45 | 16.88112 | -70.69617 | 36049 ft | 430 kts | 323° |
| 2026-04-20 18:46 | 16.93038 | -70.73154 | 36052 ft | 430 kts | 323° |
| 2026-04-20 18:46 | 16.97963 | -70.76695 | 36055 ft | 430 kts | 323° |
| 2026-04-20 18:47 | 17.02891 | -70.80243 | 36055 ft | 430 kts | 323° |
| 2026-04-20 18:47 | 17.07813 | -70.83787 | 36055 ft | 430 kts | 323° |
| 2026-04-20 18:48 | 17.12736 | -70.87329 | 36063 ft | 429 kts | 323° |
| 2026-04-20 18:48 | 17.17653 | -70.90877 | 36057 ft | 429 kts | 323° |
| 2026-04-20 18:49 | 17.22566 | -70.94428 | 36066 ft | 429 kts | 323° |
| 2026-04-20 18:49 | 17.27475 | -70.97974 | 36063 ft | 429 kts | 323° |
| 2026-04-20 18:50 | 17.32389 | -71.01519 | 36054 ft | 429 kts | 323° |
| 2026-04-20 18:50 | 17.37298 | -71.05061 | 36055 ft | 429 kts | 323° |
| 2026-04-20 18:51 | 17.42176 | -71.08582 | 36054 ft | 428 kts | 323° |
| 2026-04-20 18:51 | 17.47116 | -71.12151 | 36051 ft | 428 kts | 323° |
| 2026-04-20 18:52 | 17.51980 | -71.15677 | 36060 ft | 428 kts | 323° |
| 2026-04-20 18:52 | 17.56873 | -71.19221 | 36055 ft | 428 kts | 323° |
| 2026-04-20 18:53 | 17.61762 | -71.22764 | 36053 ft | 427 kts | 323° |
| 2026-04-20 18:53 | 17.66651 | -71.26311 | 36057 ft | 427 kts | 323° |
| 2026-04-20 18:54 | 17.71543 | -71.29851 | 36048 ft | 427 kts | 323° |
| 2026-04-20 18:54 | 17.76431 | -71.33401 | 36050 ft | 427 kts | 322° |
| 2026-04-20 18:55 | 17.81314 | -71.36955 | 36049 ft | 427 kts | 322° |
| 2026-04-20 18:55 | 17.86202 | -71.40506 | 36054 ft | 427 kts | 323° |
| 2026-04-20 18:56 | 17.91062 | -71.44027 | 36057 ft | 427 kts | 322° |
| 2026-04-20 18:56 | 17.95942 | -71.47585 | 36051 ft | 427 kts | 322° |
| 2026-04-20 18:57 | 18.00819 | -71.51146 | 36051 ft | 427 kts | 322° |
| 2026-04-20 18:57 | 18.05696 | -71.54701 | 36057 ft | 426 kts | 322° |
| 2026-04-20 18:58 | 18.09779 | -71.57672 | 36050 ft | 426 kts | 322° |
| 2026-04-20 18:58 | 18.14615 | -71.61198 | 36053 ft | 426 kts | 322° |
| 2026-04-20 18:59 | 18.19476 | -71.64751 | 36045 ft | 425 kts | 322° |
| 2026-04-20 18:59 | 18.24327 | -71.68303 | 36036 ft | 425 kts | 322° |
| 2026-04-20 19:00 | 18.29183 | -71.71854 | 36036 ft | 425 kts | 322° |
| 2026-04-20 19:00 | 18.34038 | -71.75408 | 36036 ft | 425 kts | 322° |
| 2026-04-20 19:01 | 18.38891 | -71.78958 | 36036 ft | 425 kts | 322° |
| 2026-04-20 19:01 | 18.43745 | -71.82514 | 36031 ft | 424 kts | 322° |
| 2026-04-20 19:02 | 18.48586 | -71.86072 | 36019 ft | 424 kts | 322° |
| 2026-04-20 19:02 | 18.53552 | -71.89435 | 36008 ft | 426 kts | 328° |
| 2026-04-20 19:03 | 18.58710 | -71.92423 | 36004 ft | 426 kts | 328° |
| 2026-04-20 19:03 | 18.63899 | -71.95435 | 36003 ft | 425 kts | 328° |
| 2026-04-20 19:04 | 18.69079 | -71.98459 | 36000 ft | 425 kts | 328° |
| 2026-04-20 19:04 | 18.74261 | -72.01480 | 35997 ft | 426 kts | 328° |
| 2026-04-20 19:05 | 18.79448 | -72.04503 | 36001 ft | 425 kts | 328° |
| 2026-04-20 19:05 | 18.84627 | -72.07527 | 36003 ft | 425 kts | 328° |
| 2026-04-20 19:06 | 18.89804 | -72.10545 | 36003 ft | 425 kts | 328° |
| 2026-04-20 19:06 | 18.94973 | -72.13568 | 36007 ft | 425 kts | 328° |
| 2026-04-20 19:07 | 19.00148 | -72.16596 | 36007 ft | 425 kts | 328° |
| 2026-04-20 19:07 | 19.05281 | -72.19600 | 36008 ft | 425 kts | 328° |
| 2026-04-20 19:08 | 19.13023 | -72.24131 | 36008 ft | 424 kts | 328° |
| 2026-04-20 19:09 | 19.18174 | -72.27154 | 36007 ft | 423 kts | 328° |
| 2026-04-20 19:09 | 19.23321 | -72.30173 | 36007 ft | 423 kts | 328° |
| 2026-04-20 19:10 | 19.28467 | -72.33192 | 36006 ft | 423 kts | 328° |
| 2026-04-20 19:10 | 19.33608 | -72.36215 | 36011 ft | 423 kts | 327° |
| 2026-04-20 19:11 | 19.38757 | -72.39246 | 36016 ft | 424 kts | 327° |
| 2026-04-20 19:11 | 19.43906 | -72.42269 | 36017 ft | 423 kts | 328° |
| 2026-04-20 19:12 | 19.49019 | -72.45273 | 36018 ft | 423 kts | 328° |
| 2026-04-20 19:12 | 19.54163 | -72.48307 | 36021 ft | 423 kts | 327° |
| 2026-04-20 19:13 | 19.59303 | -72.51342 | 36019 ft | 423 kts | 327° |
| 2026-04-20 19:13 | 19.64440 | -72.54372 | 36017 ft | 422 kts | 327° |